Time;durP1;ratioP1;P1;durP2;ratioP2;P2;SDS_P1;SDS_P2;PMS_P1;PMS_P2;Temp;Humidity;BMP_temperature;BMP_pressure;BME280_temperature;BME280_humidity;BME280_pressure;Samples;Min_cycle;Max_cycle;Signal;HPM_P1;HPM_P2
2022/05/04 00:01:01;;;;;;;3.20;2.67;;;;;;;;;;5072872;28;20237;-70
2022/05/04 00:03:29;;;;;;;4.50;2.83;;;;;;;;;;5076021;28;20261;-70
2022/05/04 00:05:57;;;;;;;2.87;2.50;;;;;;;;;;5075909;28;20253;-70
2022/05/04 00:08:27;;;;;;;2.77;2.53;;;;;;;;;;5073489;28;20633;-70
2022/05/04 00:10:55;;;;;;;2.57;2.37;;;;;;;;;;5076679;28;20225;-70
2022/05/04 00:13:23;;;;;;;2.80;2.60;;;;;;;;;;5073723;28;20225;-70
2022/05/04 00:15:51;;;;;;;3.47;2.90;;;;;;;;;;5074264;28;20253;-70
2022/05/04 00:18:19;;;;;;;4.43;2.40;;;;;;;;;;5074286;28;20261;-70
2022/05/04 00:20:47;;;;;;;3.10;2.60;;;;;;;;;;5073625;28;20226;-70
2022/05/04 00:23:15;;;;;;;3.43;2.60;;;;;;;;;;5075480;28;20259;-70
2022/05/04 00:25:44;;;;;;;3.40;2.73;;;;;;;;;;5068686;28;20248;-70
2022/05/04 00:28:12;;;;;;;2.67;2.47;;;;;;;;;;5065457;28;20290;-70
2022/05/04 00:30:40;;;;;;;4.53;2.40;;;;;;;;;;5073200;28;20234;-70
2022/05/04 00:33:08;;;;;;;2.60;2.40;;;;;;;;;;5072870;28;20343;-71
2022/05/04 00:35:37;;;;;;;4.73;2.27;;;;;;;;;;5076159;28;20275;-70
2022/05/04 00:38:05;;;;;;;3.20;1.97;;;;;;;;;;5075742;28;20194;-70
2022/05/04 00:40:33;;;;;;;3.77;2.40;;;;;;;;;;5067764;28;20639;-71
2022/05/04 00:43:03;;;;;;;2.73;2.30;;;;;;;;;;5075633;28;20206;-71
2022/05/04 00:45:31;;;;;;;2.50;2.30;;;;;;;;;;5072362;28;20280;-68
2022/05/04 00:47:59;;;;;;;2.73;2.43;;;;;;;;;;5070824;28;20235;-72
2022/05/04 00:50:27;;;;;;;2.80;2.57;;;;;;;;;;5075382;28;20245;-72
2022/05/04 00:52:55;;;;;;;3.20;2.50;;;;;;;;;;5075086;28;20241;-71
2022/05/04 00:55:23;;;;;;;3.50;2.83;;;;;;;;;;5066273;28;20286;-71
2022/05/04 01:00:38;;;;;;;2.67;2.47;;;;;;;;;;5070866;28;20202;-71
2022/05/04 01:03:06;;;;;;;3.50;2.70;;;;;;;;;;5069928;28;20887;-71
2022/05/04 01:05:34;;;;;;;3.03;2.83;;;;;;;;;;5071921;28;20238;-71
2022/05/04 01:08:02;;;;;;;2.83;2.53;;;;;;;;;;5076536;28;20228;-71
2022/05/04 01:10:30;;;;;;;2.90;2.60;;;;;;;;;;5075800;28;20206;-71
2022/05/04 01:12:58;;;;;;;2.93;2.53;;;;;;;;;;5078690;28;20281;-71
2022/05/04 01:15:26;;;;;;;3.43;3.07;;;;;;;;;;5077061;28;20253;-70
2022/05/04 01:17:56;;;;;;;3.20;2.90;;;;;;;;;;5076376;28;20233;-73
2022/05/04 01:20:24;;;;;;;3.17;2.87;;;;;;;;;;5075767;28;20580;-72
2022/05/04 01:22:55;;;;;;;3.50;3.03;;;;;;;;;;5079409;28;20285;-72
2022/05/04 01:25:23;;;;;;;3.10;2.80;;;;;;;;;;5072498;28;20265;-72
2022/05/04 01:27:51;;;;;;;3.70;2.67;;;;;;;;;;5075793;28;20604;-71
2022/05/04 01:30:19;;;;;;;6.27;2.83;;;;;;;;;;5078725;28;20749;-72
2022/05/04 01:32:47;;;;;;;3.07;2.40;;;;;;;;;;5075640;28;20293;-71
2022/05/04 01:35:15;;;;;;;3.10;2.80;;;;;;;;;;5073160;28;20245;-71
2022/05/04 01:37:43;;;;;;;2.97;2.67;;;;;;;;;;5078340;28;20244;-71
2022/05/04 01:40:13;;;;;;;3.40;3.10;;;;;;;;;;5078508;28;20233;-72
2022/05/04 01:42:41;;;;;;;3.83;2.90;;;;;;;;;;5075370;28;20218;-72
2022/05/04 01:45:10;;;;;;;3.17;2.87;;;;;;;;;;5075267;28;20229;-72
2022/05/04 01:47:38;;;;;;;3.23;2.87;;;;;;;;;;5078304;28;20203;-71
2022/05/04 01:50:06;;;;;;;3.93;2.60;;;;;;;;;;5075752;28;20237;-74
2022/05/04 01:52:34;;;;;;;3.23;3.00;;;;;;;;;;5078087;28;20221;-73
2022/05/04 01:55:02;;;;;;;3.10;2.90;;;;;;;;;;5074232;28;20231;-73
2022/05/04 01:57:32;;;;;;;2.83;2.63;;;;;;;;;;5071241;28;20203;-73
2022/05/04 02:00:00;;;;;;;4.03;2.73;;;;;;;;;;5071489;28;20198;-71
2022/05/04 02:02:28;;;;;;;3.03;2.77;;;;;;;;;;5075113;28;20234;-73
2022/05/04 02:04:57;;;;;;;2.93;2.63;;;;;;;;;;5074946;28;20210;-73
2022/05/04 02:07:25;;;;;;;3.70;2.90;;;;;;;;;;5074840;28;20677;-73
2022/05/04 02:09:53;;;;;;;3.50;2.67;;;;;;;;;;5066144;28;20253;-73
2022/05/04 02:12:21;;;;;;;3.17;2.87;;;;;;;;;;5074667;28;20198;-73
2022/05/04 02:14:51;;;;;;;4.23;2.70;;;;;;;;;;5069457;28;20281;-73
2022/05/04 02:17:19;;;;;;;3.67;3.30;;;;;;;;;;5073098;28;20223;-73
2022/05/04 02:19:47;;;;;;;2.83;2.63;;;;;;;;;;5074200;28;20213;-73
2022/05/04 02:22:16;;;;;;;3.93;3.00;;;;;;;;;;5073791;28;20653;-73
2022/05/04 02:24:44;;;;;;;3.10;2.80;;;;;;;;;;5072135;28;20229;-73
2022/05/04 02:27:12;;;;;;;3.83;2.70;;;;;;;;;;5071487;28;20416;-73
2022/05/04 02:29:40;;;;;;;3.27;2.97;;;;;;;;;;5072902;28;20233;-73
2022/05/04 02:32:10;;;;;;;4.77;3.57;;;;;;;;;;5075759;28;20205;-73
2022/05/04 02:37:54;;;;;;;5.30;2.80;;;;;;;;;;5074391;28;20205;-73
2022/05/04 02:40:13;;;;;;;3.60;3.13;;;;;;;;;;5065244;28;20294;-73
2022/05/04 02:42:41;;;;;;;3.07;2.83;;;;;;;;;;5077231;28;20225;-73
2022/05/04 02:45:10;;;;;;;5.03;3.20;;;;;;;;;;5074375;28;20226;-74
2022/05/04 02:47:40;;;;;;;2.73;2.53;;;;;;;;;;5066529;28;20226;-73
2022/05/04 02:50:14;;;;;;;3.67;3.17;;;;;;;;;;5073948;28;20206;-73
2022/05/04 02:52:42;;;;;;;3.13;2.83;;;;;;;;;;5074357;28;20198;-73
2022/05/04 02:55:11;;;;;;;4.93;2.70;;;;;;;;;;5074192;28;20297;-73
2022/05/04 02:57:39;;;;;;;2.50;2.30;;;;;;;;;;5077194;28;20198;-73
2022/05/04 03:00:08;;;;;;;2.67;2.43;;;;;;;;;;5073996;28;20266;-73
2022/05/04 03:02:36;;;;;;;2.47;2.27;;;;;;;;;;5073087;28;20309;-73
2022/05/04 03:05:06;;;;;;;3.47;2.43;;;;;;;;;;5077282;28;20208;-71
2022/05/04 03:07:35;;;;;;;6.53;3.43;;;;;;;;;;5073525;28;20309;-71
2022/05/04 03:10:03;;;;;;;6.43;4.00;;;;;;;;;;5073952;28;20702;-71
2022/05/04 03:12:31;;;;;;;4.20;3.50;;;;;;;;;;5076851;28;20198;-71
2022/05/04 03:14:59;;;;;;;6.73;3.40;;;;;;;;;;5076969;28;20195;-72
2022/05/04 03:17:27;;;;;;;6.50;3.47;;;;;;;;;;5067396;28;20233;-73
2022/05/04 03:19:56;;;;;;;4.90;3.50;;;;;;;;;;5068798;28;20230;-71
2022/05/04 03:22:25;;;;;;;4.87;3.70;;;;;;;;;;5072868;28;20230;-73
2022/05/04 03:24:53;;;;;;;4.60;3.30;;;;;;;;;;5071013;28;20278;-73
2022/05/04 03:27:21;;;;;;;3.70;3.10;;;;;;;;;;5077137;28;20282;-72
2022/05/04 03:29:50;;;;;;;4.83;3.00;;;;;;;;;;5075736;28;20285;-73
2022/05/04 03:32:18;;;;;;;4.23;3.70;;;;;;;;;;5065365;28;20213;-72
2022/05/04 03:34:47;;;;;;;3.63;3.30;;;;;;;;;;5075561;28;20229;-76
2022/05/04 03:37:15;;;;;;;4.10;3.40;;;;;;;;;;5067732;28;20214;-76
2022/05/04 03:39:45;;;;;;;4.30;3.07;;;;;;;;;;5065136;28;20230;-76
2022/05/04 03:42:13;;;;;;;3.30;3.00;;;;;;;;;;5070164;28;20198;-77
2022/05/04 03:44:41;;;;;;;3.80;3.33;;;;;;;;;;5070810;28;20277;-78
2022/05/04 03:47:09;;;;;;;3.87;3.40;;;;;;;;;;5066011;28;20254;-78
2022/05/04 03:49:37;;;;;;;5.57;3.87;;;;;;;;;;5065769;28;20206;-78
2022/05/04 03:52:05;;;;;;;5.50;4.10;;;;;;;;;;5070066;28;20201;-79
2022/05/04 03:54:33;;;;;;;6.10;4.10;;;;;;;;;;5071758;28;20234;-78
2022/05/04 03:57:03;;;;;;;7.57;4.80;;;;;;;;;;5072420;28;20237;-78
2022/05/04 03:59:31;;;;;;;5.27;4.40;;;;;;;;;;5066534;28;20199;-77
2022/05/04 04:01:59;;;;;;;7.57;5.47;;;;;;;;;;5068824;28;20198;-78
2022/05/04 04:04:28;;;;;;;6.70;4.57;;;;;;;;;;5070810;28;20206;-77
2022/05/04 04:06:56;;;;;;;7.73;4.50;;;;;;;;;;5073788;28;20309;-77
2022/05/04 04:09:24;;;;;;;9.53;4.90;;;;;;;;;;5069865;28;20560;-77
2022/05/04 04:11:52;;;;;;;7.33;4.77;;;;;;;;;;5072474;28;20272;-76
2022/05/04 04:14:21;;;;;;;4.23;3.83;;;;;;;;;;5071397;28;20237;-78
2022/05/04 04:16:49;;;;;;;5.23;4.53;;;;;;;;;;5067510;28;20218;-79
2022/05/04 04:19:17;;;;;;;5.43;4.27;;;;;;;;;;5070119;28;20798;-77
2022/05/04 04:21:50;;;;;;;4.83;4.37;;;;;;;;;;5069543;28;20266;-77
2022/05/04 04:24:18;;;;;;;5.13;4.43;;;;;;;;;;5067103;28;20296;-78
2022/05/04 04:26:46;;;;;;;5.33;4.10;;;;;;;;;;5069698;28;20254;-78
2022/05/04 04:29:14;;;;;;;6.27;4.53;;;;;;;;;;5066896;28;20202;-77
2022/05/04 04:31:44;;;;;;;4.97;4.13;;;;;;;;;;5070493;28;20276;-77
2022/05/04 04:34:12;;;;;;;5.23;4.17;;;;;;;;;;5071378;28;20206;-77
2022/05/04 04:36:41;;;;;;;5.43;4.23;;;;;;;;;;5069669;28;20333;-78
2022/05/04 04:39:09;;;;;;;5.23;4.50;;;;;;;;;;5064901;28;20673;-77
2022/05/04 04:41:37;;;;;;;6.00;3.67;;;;;;;;;;5070166;28;20234;-77
2022/05/04 04:44:05;;;;;;;4.10;3.73;;;;;;;;;;5068728;28;20226;-77
2022/05/04 04:46:33;;;;;;;4.20;3.73;;;;;;;;;;5072831;28;20262;-76
2022/05/04 04:49:02;;;;;;;5.13;3.83;;;;;;;;;;5069664;28;20219;-76
2022/05/04 04:51:30;;;;;;;5.30;4.33;;;;;;;;;;5072934;28;20238;-76
2022/05/04 04:53:58;;;;;;;6.43;4.40;;;;;;;;;;5067643;28;20282;-76
2022/05/04 04:56:26;;;;;;;4.30;3.90;;;;;;;;;;5072652;28;20222;-75
2022/05/04 04:58:54;;;;;;;4.30;3.53;;;;;;;;;;5073526;28;20286;-78
2022/05/04 05:01:22;;;;;;;4.40;4.00;;;;;;;;;;5075460;28;20262;-78
2022/05/04 05:03:50;;;;;;;3.87;3.03;;;;;;;;;;5076947;28;20256;-76
2022/05/04 05:06:20;;;;;;;6.33;3.87;;;;;;;;;;5078920;28;20261;-76
2022/05/04 05:08:48;;;;;;;4.73;3.90;;;;;;;;;;5079570;28;20253;-77
2022/05/04 05:11:18;;;;;;;4.77;3.47;;;;;;;;;;5070825;28;20226;-76
2022/05/04 05:16:31;;;;;;;5.27;4.50;;;;;;;;;;5071378;28;20252;-77
2022/05/04 05:19:00;;;;;;;3.80;3.50;;;;;;;;;;5074601;28;20198;-77
2022/05/04 05:21:29;;;;;;;4.97;3.47;;;;;;;;;;5072271;28;20228;-77
2022/05/04 05:23:57;;;;;;;4.83;3.90;;;;;;;;;;5074332;28;20210;-77
2022/05/04 05:26:25;;;;;;;4.17;3.87;;;;;;;;;;5072155;28;20261;-77
2022/05/04 05:28:54;;;;;;;5.73;4.27;;;;;;;;;;5069399;28;20265;-78
2022/05/04 05:31:22;;;;;;;4.40;4.00;;;;;;;;;;5071269;28;20225;-75
2022/05/04 05:33:50;;;;;;;4.87;4.00;;;;;;;;;;5070704;28;20297;-72
2022/05/04 05:36:18;;;;;;;5.93;3.93;;;;;;;;;;5070243;28;20330;-73
2022/05/04 05:38:47;;;;;;;5.10;4.53;;;;;;;;;;5077327;28;20195;-74
2022/05/04 05:41:15;;;;;;;5.80;4.80;;;;;;;;;;5078370;28;20229;-74
2022/05/04 05:43:43;;;;;;;8.97;4.67;;;;;;;;;;5076326;28;20242;-75
2022/05/04 05:46:11;;;;;;;5.07;4.60;;;;;;;;;;5070491;28;20261;-74
2022/05/04 05:48:39;;;;;;;5.47;4.93;;;;;;;;;;5075660;28;20222;-74
2022/05/04 05:51:07;;;;;;;6.23;5.30;;;;;;;;;;5076297;28;20281;-73
2022/05/04 05:53:35;;;;;;;5.70;5.20;;;;;;;;;;5070432;28;20266;-73
2022/05/04 05:56:06;;;;;;;6.53;5.10;;;;;;;;;;5071915;28;20226;-74
2022/05/04 05:58:34;;;;;;;10.00;6.50;;;;;;;;;;5071541;28;20234;-73
2022/05/04 06:01:02;;;;;;;5.27;4.77;;;;;;;;;;5072018;28;20230;-73
2022/05/04 06:03:30;;;;;;;6.40;5.27;;;;;;;;;;5069574;28;20283;-72
2022/05/04 06:05:58;;;;;;;7.43;6.13;;;;;;;;;;5070728;28;20578;-73
2022/05/04 06:08:26;;;;;;;7.00;4.47;;;;;;;;;;5071881;28;20246;-73
2022/05/04 06:10:54;;;;;;;5.83;4.90;;;;;;;;;;5071536;28;20233;-73
2022/05/04 06:13:24;;;;;;;7.23;4.87;;;;;;;;;;5073687;28;20230;-73
2022/05/04 06:15:52;;;;;;;7.20;5.50;;;;;;;;;;5070886;28;20218;-74
2022/05/04 06:18:21;;;;;;;11.80;5.10;;;;;;;;;;5066872;28;20190;-73
2022/05/04 06:20:49;;;;;;;6.20;5.03;;;;;;;;;;5069689;28;20202;-73
2022/05/04 06:23:17;;;;;;;9.00;4.93;;;;;;;;;;5067945;28;20714;-73
2022/05/04 06:25:45;;;;;;;6.70;5.47;;;;;;;;;;5071732;28;20602;-73
2022/05/04 06:28:13;;;;;;;9.17;6.10;;;;;;;;;;5071063;28;20255;-73
2022/05/04 06:36:14;;;;;;;4.60;4.10;;;;;;;;;;5069158;28;20225;-73
2022/05/04 06:38:42;;;;;;;6.00;4.83;;;;;;;;;;5071466;28;20245;-74
2022/05/04 06:41:10;;;;;;;7.97;3.77;;;;;;;;;;5071662;28;20211;-74
2022/05/04 06:43:38;;;;;;;5.93;4.37;;;;;;;;;;5076389;28;20285;-76
2022/05/04 06:46:07;;;;;;;8.83;6.00;;;;;;;;;;5070638;28;20291;-75
2022/05/04 06:48:35;;;;;;;7.37;4.43;;;;;;;;;;5066857;28;20275;-75
2022/05/04 06:51:04;;;;;;;7.20;4.17;;;;;;;;;;5066295;28;20195;-75
2022/05/04 06:53:33;;;;;;;8.60;4.63;;;;;;;;;;5068400;28;20209;-74
2022/05/04 06:56:01;;;;;;;9.73;4.23;;;;;;;;;;5068780;28;20217;-75
2022/05/04 06:58:29;;;;;;;5.17;4.67;;;;;;;;;;5065291;28;20224;-74
2022/05/04 07:00:57;;;;;;;6.57;4.70;;;;;;;;;;5069463;28;20194;-75
2022/05/04 07:03:27;;;;;;;7.63;4.57;;;;;;;;;;5067453;28;20242;-75
2022/05/04 07:05:55;;;;;;;6.60;4.90;;;;;;;;;;5068273;28;20242;-75
2022/05/04 07:08:23;;;;;;;5.57;4.57;;;;;;;;;;5064919;28;20227;-75
2022/05/04 07:10:51;;;;;;;9.97;5.37;;;;;;;;;;5072368;28;20285;-75
2022/05/04 07:13:19;;;;;;;6.50;4.47;;;;;;;;;;5071465;28;20202;-75
2022/05/04 07:15:47;;;;;;;6.47;4.40;;;;;;;;;;5068776;28;20253;-75
2022/05/04 07:18:15;;;;;;;6.30;4.27;;;;;;;;;;5064494;28;20199;-74
2022/05/04 07:20:45;;;;;;;5.10;4.13;;;;;;;;;;5067922;28;20655;-75
2022/05/04 07:23:12;;;;;;;7.30;3.97;;;;;;;;;;5070999;28;20237;-74
2022/05/04 07:25:41;;;;;;;7.37;4.20;;;;;;;;;;5066799;28;20254;-74
2022/05/04 07:28:09;;;;;;;5.53;4.00;;;;;;;;;;5067924;28;20263;-74
2022/05/04 07:30:37;;;;;;;6.53;4.07;;;;;;;;;;5063816;28;20231;-74
2022/05/04 07:33:05;;;;;;;5.67;3.90;;;;;;;;;;5074035;28;20201;-74
2022/05/04 07:35:33;;;;;;;7.40;4.67;;;;;;;;;;5073477;28;20301;-75
2022/05/04 07:38:03;;;;;;;7.80;4.23;;;;;;;;;;5070514;28;20206;-74
2022/05/04 07:43:16;;;;;;;5.43;4.03;;;;;;;;;;5072494;28;20241;-74
2022/05/04 07:45:44;;;;;;;4.53;3.93;;;;;;;;;;5070620;28;20275;-75
2022/05/04 07:48:12;;;;;;;5.00;3.53;;;;;;;;;;5065660;28;20247;-75
2022/05/04 07:50:41;;;;;;;6.40;4.23;;;;;;;;;;5074782;28;20249;-74
2022/05/04 07:53:10;;;;;;;17.20;5.27;;;;;;;;;;5069276;28;20205;-75
2022/05/04 07:55:38;;;;;;;6.83;4.60;;;;;;;;;;5070692;28;20250;-74
2022/05/04 07:58:06;;;;;;;4.00;3.60;;;;;;;;;;5067533;28;20230;-74
2022/05/04 08:06:05;;;;;;;5.10;3.83;;;;;;;;;;5068507;28;20254;-73
2022/05/04 08:08:35;;;;;;;4.40;3.63;;;;;;;;;;5066201;28;20290;-73
2022/05/04 08:11:03;;;;;;;3.50;3.20;;;;;;;;;;5071721;28;20661;-73
2022/05/04 08:13:31;;;;;;;4.30;3.47;;;;;;;;;;5069814;28;20281;-73
2022/05/04 08:16:00;;;;;;;4.43;4.03;;;;;;;;;;5076247;28;20230;-72
2022/05/04 08:18:28;;;;;;;5.50;3.67;;;;;;;;;;5074886;28;20198;-72
2022/05/04 08:20:56;;;;;;;6.40;3.93;;;;;;;;;;5069264;28;20195;-73
2022/05/04 08:23:24;;;;;;;13.80;5.77;;;;;;;;;;5074755;28;20229;-73
2022/05/04 08:25:55;;;;;;;8.03;4.57;;;;;;;;;;5078564;28;20269;-72
2022/05/04 08:28:23;;;;;;;8.37;7.10;;;;;;;;;;5075666;28;20202;-73
2022/05/04 08:30:51;;;;;;;4.90;3.83;;;;;;;;;;5075203;28;20214;-72
2022/05/04 08:33:19;;;;;;;6.03;3.60;;;;;;;;;;5074180;28;20210;-72
2022/05/04 08:35:47;;;;;;;4.13;3.33;;;;;;;;;;5073017;28;20582;-74
2022/05/04 08:38:16;;;;;;;9.87;3.73;;;;;;;;;;5073892;28;20206;-74
2022/05/04 08:40:44;;;;;;;6.40;3.90;;;;;;;;;;5070325;28;20260;-73
2022/05/04 08:43:14;;;;;;;8.00;3.77;;;;;;;;;;5073490;28;20249;-74
2022/05/04 08:45:42;;;;;;;5.17;3.87;;;;;;;;;;5074888;28;20268;-73
2022/05/04 08:48:10;;;;;;;4.13;3.73;;;;;;;;;;5070433;28;20203;-73
2022/05/04 08:50:39;;;;;;;4.23;3.50;;;;;;;;;;5075533;28;20305;-73
2022/05/04 08:53:07;;;;;;;3.87;3.27;;;;;;;;;;5069812;28;20203;-73
2022/05/04 08:55:37;;;;;;;6.90;3.70;;;;;;;;;;5076842;28;20214;-73
2022/05/04 08:58:05;;;;;;;4.00;3.33;;;;;;;;;;5073870;28;20271;-72
2022/05/04 09:00:34;;;;;;;5.57;3.83;;;;;;;;;;5069420;28;20201;-73
2022/05/04 09:03:03;;;;;;;4.97;4.13;;;;;;;;;;5073235;28;20238;-72
2022/05/04 09:05:39;;;;;;;4.60;3.43;;;;;;;;;;5071074;28;20225;-73
2022/05/04 09:08:08;;;;;;;4.40;3.03;;;;;;;;;;5074167;28;20608;-73
2022/05/04 09:10:40;;;;;;;3.13;2.83;;;;;;;;;;5074439;28;20257;-72
2022/05/04 09:13:09;;;;;;;6.63;3.10;;;;;;;;;;5073623;28;20923;-72
2022/05/04 09:15:40;;;;;;;4.70;2.80;;;;;;;;;;5068580;28;20218;-73
2022/05/04 09:18:13;;;;;;;5.00;3.43;;;;;;;;;;5072533;28;20209;-73
2022/05/04 09:20:49;;;;;;;3.27;2.70;;;;;;;;;;5071928;28;20198;-72
2022/05/04 09:23:18;;;;;;;5.63;3.00;;;;;;;;;;5067633;28;20206;-73
2022/05/04 09:25:48;;;;;;;4.73;3.90;;;;;;;;;;5071272;28;20222;-73
2022/05/04 09:28:16;;;;;;;5.17;3.27;;;;;;;;;;5068781;28;20640;-74
2022/05/04 09:30:47;;;;;;;5.30;3.67;;;;;;;;;;5075078;28;20659;-73
2022/05/04 09:33:18;;;;;;;5.83;3.10;;;;;;;;;;5070819;28;20202;-73
2022/05/04 09:35:46;;;;;;;4.07;3.10;;;;;;;;;;5072942;28;20218;-74
2022/05/04 09:46:39;;;;;;;5.40;3.30;;;;;;;;;;5070386;28;20254;-73
2022/05/04 09:49:10;;;;;;;3.40;3.10;;;;;;;;;;5075493;28;20206;-73
2022/05/04 09:51:39;;;;;;;3.07;2.87;;;;;;;;;;5072590;28;20272;-73
2022/05/04 09:54:14;;;;;;;4.63;3.03;;;;;;;;;;5077218;28;20225;-73
2022/05/04 09:56:42;;;;;;;4.30;3.13;;;;;;;;;;5072485;28;21356;-73
2022/05/04 09:59:10;;;;;;;3.40;2.87;;;;;;;;;;5069340;28;20207;-73
2022/05/04 10:01:40;;;;;;;4.80;3.43;;;;;;;;;;5067353;28;20215;-73
2022/05/04 10:04:09;;;;;;;3.00;2.70;;;;;;;;;;5070442;28;20632;-75
2022/05/04 10:06:38;;;;;;;5.07;4.03;;;;;;;;;;5071012;28;20249;-73
2022/05/04 10:09:06;;;;;;;5.00;3.50;;;;;;;;;;5075703;28;20245;-72
2022/05/04 10:11:35;;;;;;;4.57;3.47;;;;;;;;;;5075593;28;20275;-72
2022/05/04 10:14:04;;;;;;;6.80;3.37;;;;;;;;;;5074524;28;20264;-73
2022/05/04 10:16:34;;;;;;;6.83;3.27;;;;;;;;;;5070465;28;20234;-72
2022/05/04 10:19:07;;;;;;;5.17;3.93;;;;;;;;;;5074299;28;20203;-73
2022/05/04 10:21:35;;;;;;;3.40;3.10;;;;;;;;;;5075095;28;20256;-72
2022/05/04 10:24:07;;;;;;;4.23;2.73;;;;;;;;;;5069520;28;20263;-72
2022/05/04 10:26:36;;;;;;;2.90;2.30;;;;;;;;;;5069953;28;20219;-72
2022/05/04 10:32:04;;;;;;;7.70;3.53;;;;;;;;;;5065919;28;20724;-72
2022/05/04 10:34:34;;;;;;;4.57;3.10;;;;;;;;;;5069136;28;20202;-72
2022/05/04 10:37:02;;;;;;;3.27;2.67;;;;;;;;;;5069777;28;20223;-72
2022/05/04 10:39:30;;;;;;;3.70;3.20;;;;;;;;;;5064260;28;20230;-72
2022/05/04 10:41:58;;;;;;;4.00;3.50;;;;;;;;;;5072728;28;20213;-72
2022/05/04 10:44:41;;;;;;;5.67;3.53;;;;;;;;;;5074782;28;20696;-72
2022/05/04 10:47:17;;;;;;;3.77;3.37;;;;;;;;;;5071241;28;20267;-72
2022/05/04 10:49:47;;;;;;;7.50;4.20;;;;;;;;;;5070039;28;20199;-72
2022/05/04 10:52:18;;;;;;;4.20;3.10;;;;;;;;;;5072786;28;20222;-72
2022/05/04 10:54:48;;;;;;;3.17;2.83;;;;;;;;;;5071693;28;20245;-72
2022/05/04 10:57:16;;;;;;;4.97;3.17;;;;;;;;;;5068321;28;20269;-72
2022/05/04 10:59:49;;;;;;;4.63;3.67;;;;;;;;;;5068721;28;20685;-73
2022/05/04 11:02:19;;;;;;;6.23;3.50;;;;;;;;;;5068855;28;20284;-73
2022/05/04 11:04:53;;;;;;;3.93;3.40;;;;;;;;;;5069719;28;20256;-71
2022/05/04 11:07:25;;;;;;;5.97;3.63;;;;;;;;;;5068609;28;20222;-72
2022/05/04 11:10:00;;;;;;;4.43;3.67;;;;;;;;;;5067788;28;20195;-69
2022/05/04 11:12:28;;;;;;;3.70;3.40;;;;;;;;;;5067842;28;20272;-71
2022/05/04 11:14:56;;;;;;;4.33;3.93;;;;;;;;;;5069684;28;20222;-72
2022/05/04 11:17:24;;;;;;;3.63;3.33;;;;;;;;;;5071345;28;20598;-74
2022/05/04 11:19:54;;;;;;;4.23;3.60;;;;;;;;;;5069085;28;20286;-72
2022/05/04 11:22:22;;;;;;;3.23;2.90;;;;;;;;;;5069214;28;20195;-72
2022/05/04 11:25:11;;;;;;;5.30;3.67;;;;;;;;;;5068596;28;20230;-73
2022/05/04 11:27:39;;;;;;;3.53;3.17;;;;;;;;;;5070984;28;20194;-72
2022/05/04 11:30:07;;;;;;;3.87;3.23;;;;;;;;;;5072837;28;20225;-69
2022/05/04 11:32:35;;;;;;;3.40;3.10;;;;;;;;;;5067361;28;20315;-70
2022/05/04 11:35:05;;;;;;;8.90;5.90;;;;;;;;;;5066686;28;20238;-72
2022/05/04 11:37:33;;;;;;;5.30;3.93;;;;;;;;;;5066552;28;20233;-71
2022/05/04 11:40:10;;;;;;;3.87;3.53;;;;;;;;;;5067463;28;20238;-67
2022/05/04 11:42:38;;;;;;;4.03;3.67;;;;;;;;;;5066484;28;20194;-67
2022/05/04 11:45:06;;;;;;;4.07;3.67;;;;;;;;;;5070106;28;20230;-69
2022/05/04 11:47:34;;;;;;;4.23;3.83;;;;;;;;;;5075405;28;20269;-70
2022/05/04 11:50:07;;;;;;;3.83;3.33;;;;;;;;;;5062837;28;20211;-70
2022/05/04 11:52:35;;;;;;;3.50;2.90;;;;;;;;;;5070413;28;20688;-68
2022/05/04 11:55:03;;;;;;;3.80;2.80;;;;;;;;;;5069934;28;20574;-70
2022/05/04 11:57:35;;;;;;;3.73;2.87;;;;;;;;;;5072985;28;20198;-69
2022/05/04 12:00:12;;;;;;;5.23;3.00;;;;;;;;;;5073804;28;20637;-74
2022/05/04 12:02:40;;;;;;;4.90;3.13;;;;;;;;;;5070934;28;20276;-76
2022/05/04 12:05:10;;;;;;;4.27;3.13;;;;;;;;;;5068369;28;20238;-75
2022/05/04 12:07:38;;;;;;;5.47;2.50;;;;;;;;;;5069385;28;20201;-76
2022/05/04 12:10:07;;;;;;;3.27;2.20;;;;;;;;;;5069886;28;20658;-78
2022/05/04 12:12:35;;;;;;;2.50;2.17;;;;;;;;;;5068618;28;20217;-76
2022/05/04 12:15:05;;;;;;;8.37;2.60;;;;;;;;;;5069410;28;20557;-75
2022/05/04 12:17:36;;;;;;;5.33;2.80;;;;;;;;;;5068164;28;20261;-76
2022/05/04 12:20:05;;;;;;;3.33;2.63;;;;;;;;;;5067155;28;20612;-76
2022/05/04 12:22:38;;;;;;;5.00;2.47;;;;;;;;;;5073915;28;20251;-75
2022/05/04 12:25:07;;;;;;;2.70;2.20;;;;;;;;;;5070248;28;20205;-74
2022/05/04 12:27:37;;;;;;;2.33;2.00;;;;;;;;;;5067339;28;20220;-76
2022/05/04 12:33:10;;;;;;;3.60;1.83;;;;;;;;;;5073642;28;20214;-75
2022/05/04 12:35:40;;;;;;;2.73;1.73;;;;;;;;;;5069539;28;20225;-76
2022/05/04 12:38:11;;;;;;;1.80;1.70;;;;;;;;;;5068142;28;20723;-75
2022/05/04 12:40:42;;;;;;;4.73;2.27;;;;;;;;;;5070068;28;20574;-76
2022/05/04 12:43:11;;;;;;;1.97;1.87;;;;;;;;;;5069552;28;20202;-75
2022/05/04 12:45:40;;;;;;;1.93;1.80;;;;;;;;;;5066836;28;20230;-76
2022/05/04 12:48:09;;;;;;;1.60;1.50;;;;;;;;;;5069361;28;20207;-76
2022/05/04 12:50:38;;;;;;;3.40;2.10;;;;;;;;;;5072311;28;20206;-76
2022/05/04 12:53:07;;;;;;;1.93;1.80;;;;;;;;;;5071859;28;20685;-75
2022/05/04 12:58:22;;;;;;;4.20;1.90;;;;;;;;;;5069773;28;20613;-75
2022/05/04 13:00:50;;;;;;;2.00;1.80;;;;;;;;;;5066796;28;20205;-76
2022/05/04 13:03:19;;;;;;;3.03;2.50;;;;;;;;;;5066966;28;20593;-75
2022/05/04 13:05:47;;;;;;;3.17;1.80;;;;;;;;;;5073055;28;20261;-76
2022/05/04 13:08:15;;;;;;;1.50;1.40;;;;;;;;;;5072005;28;20206;-75
2022/05/04 13:10:47;;;;;;;1.57;1.47;;;;;;;;;;5072888;28;20690;-77
2022/05/04 13:13:15;;;;;;;3.90;1.70;;;;;;;;;;5075241;28;20309;-77
2022/05/04 13:15:43;;;;;;;2.90;1.90;;;;;;;;;;5069859;28;20223;-78
2022/05/04 13:18:11;;;;;;;1.80;1.70;;;;;;;;;;5069404;28;20234;-75
2022/05/04 13:20:39;;;;;;;3.70;1.70;;;;;;;;;;5074420;28;20199;-76
2022/05/04 13:23:08;;;;;;;1.63;1.50;;;;;;;;;;5071526;28;20199;-75
2022/05/04 13:25:37;;;;;;;1.83;1.70;;;;;;;;;;5069881;28;20225;-76
2022/05/04 13:28:07;;;;;;;1.93;1.83;;;;;;;;;;5068238;28;20286;-77
2022/05/04 13:30:35;;;;;;;2.03;1.90;;;;;;;;;;5071576;28;21060;-74
2022/05/04 13:33:03;;;;;;;1.83;1.73;;;;;;;;;;5072706;28;20672;-72
2022/05/04 13:35:31;;;;;;;3.70;2.03;;;;;;;;;;5070177;28;20233;-70
2022/05/04 13:38:00;;;;;;;8.37;2.30;;;;;;;;;;5065961;28;20298;-69
2022/05/04 13:40:28;;;;;;;3.27;2.40;;;;;;;;;;5069095;28;20234;-69
2022/05/04 13:42:56;;;;;;;3.90;2.20;;;;;;;;;;5069790;28;20230;-69
2022/05/04 13:45:25;;;;;;;4.77;2.43;;;;;;;;;;5068936;28;20226;-69
2022/05/04 13:47:53;;;;;;;4.40;2.00;;;;;;;;;;5074051;28;20245;-70
2022/05/04 13:53:16;;;;;;;2.70;1.90;;;;;;;;;;5072998;28;20273;-68
2022/05/04 13:55:45;;;;;;;1.80;1.70;;;;;;;;;;5072366;28;20272;-68
2022/05/04 13:58:13;;;;;;;2.93;1.87;;;;;;;;;;5070437;28;20233;-68
2022/05/04 14:00:43;;;;;;;2.60;1.87;;;;;;;;;;5072179;28;20229;-67
2022/05/04 14:03:12;;;;;;;4.17;1.73;;;;;;;;;;5073259;28;20242;-68
2022/05/04 14:05:41;;;;;;;2.90;2.03;;;;;;;;;;5068498;28;20250;-68
2022/05/04 14:08:09;;;;;;;2.27;1.40;;;;;;;;;;5067924;28;20281;-68
2022/05/04 14:10:43;;;;;;;1.40;1.30;;;;;;;;;;5068955;28;20232;-66
2022/05/04 14:13:11;;;;;;;1.60;1.50;;;;;;;;;;5066459;28;20242;-66
2022/05/04 14:15:40;;;;;;;3.17;1.73;;;;;;;;;;5070228;28;20234;-67
2022/05/04 14:18:09;;;;;;;1.83;1.70;;;;;;;;;;5070319;28;20203;-71
2022/05/04 14:20:37;;;;;;;1.83;1.73;;;;;;;;;;5068648;28;20205;-68
2022/05/04 14:23:06;;;;;;;1.63;1.53;;;;;;;;;;5076047;28;20194;-68
2022/05/04 14:25:34;;;;;;;1.33;1.23;;;;;;;;;;5064717;28;20229;-70
2022/05/04 14:28:02;;;;;;;1.37;1.23;;;;;;;;;;5068208;28;20195;-71
2022/05/04 14:30:30;;;;;;;3.03;1.67;;;;;;;;;;5073097;28;20195;-70
2022/05/04 14:32:58;;;;;;;1.90;1.53;;;;;;;;;;5072372;28;20265;-69
2022/05/04 14:35:27;;;;;;;2.47;1.70;;;;;;;;;;5074074;28;20284;-72
2022/05/04 14:37:55;;;;;;;2.10;2.00;;;;;;;;;;5064306;28;21021;-70
2022/05/04 14:40:24;;;;;;;4.53;1.63;;;;;;;;;;5076014;28;20575;-70
2022/05/04 14:42:54;;;;;;;2.30;1.60;;;;;;;;;;5074586;28;20241;-72
2022/05/04 14:45:22;;;;;;;1.90;1.73;;;;;;;;;;5071316;28;20647;-71
2022/05/04 14:47:51;;;;;;;1.60;1.50;;;;;;;;;;5070368;28;20194;-72
2022/05/04 14:50:19;;;;;;;2.53;1.63;;;;;;;;;;5067697;28;20260;-71
2022/05/04 14:52:49;;;;;;;2.03;1.77;;;;;;;;;;5070480;28;20255;-71
2022/05/04 14:55:17;;;;;;;2.40;2.20;;;;;;;;;;5067374;28;20321;-71
2022/05/04 14:57:45;;;;;;;1.80;1.70;;;;;;;;;;5070276;28;20217;-73
2022/05/04 15:00:13;;;;;;;1.43;1.30;;;;;;;;;;5069655;28;20226;-73
2022/05/04 15:05:24;;;;;;;1.83;1.73;;;;;;;;;;5067003;28;20248;-72
2022/05/04 15:07:55;;;;;;;1.90;1.80;;;;;;;;;;5072494;28;20230;-72
2022/05/04 15:10:23;;;;;;;1.37;1.30;;;;;;;;;;5070130;28;20203;-72
2022/05/04 15:12:51;;;;;;;1.40;1.30;;;;;;;;;;5067439;28;20643;-72
2022/05/04 15:15:19;;;;;;;1.10;1.10;;;;;;;;;;5069316;28;20385;-72
2022/05/04 15:17:47;;;;;;;1.10;0.93;;;;;;;;;;5068472;28;20282;-72
2022/05/04 15:20:15;;;;;;;1.03;0.87;;;;;;;;;;5069108;28;20213;-72
2022/05/04 15:22:43;;;;;;;1.80;1.33;;;;;;;;;;5070275;28;20230;-72
2022/05/04 15:25:13;;;;;;;1.57;1.30;;;;;;;;;;5069517;28;21889;-72
2022/05/04 15:27:41;;;;;;;7.90;1.87;;;;;;;;;;5069761;28;20231;-72
2022/05/04 15:30:09;;;;;;;5.43;1.90;;;;;;;;;;5071841;28;20224;-72
2022/05/04 15:32:37;;;;;;;8.47;2.47;;;;;;;;;;5073445;28;20544;-76
2022/05/04 15:35:06;;;;;;;3.40;2.47;;;;;;;;;;5072617;28;20548;-75
2022/05/04 15:37:34;;;;;;;1.97;1.80;;;;;;;;;;5073428;28;20201;-75